createdAt,value
2017-08-07T00:00:31.474Z,26.60
2017-08-07T00:02:58.965Z,26.60
2017-08-07T00:05:26.460Z,26.90
2017-08-07T00:07:53.956Z,26.30
2017-08-07T00:10:21.468Z,26.20
2017-08-07T00:12:48.967Z,26.20
2017-08-07T00:15:16.446Z,26.20
2017-08-07T00:17:44.712Z,26.70
2017-08-07T00:20:12.197Z,26.70
2017-08-07T00:22:40.459Z,27.00
2017-08-07T00:25:08.726Z,26.90
2017-08-07T00:27:36.216Z,26.90
2017-08-07T00:30:03.708Z,27.00
2017-08-07T00:32:31.201Z,27.00
2017-08-07T00:34:58.678Z,27.00
2017-08-07T00:37:26.154Z,27.00
2017-08-07T00:39:53.655Z,26.30
2017-08-07T00:42:21.145Z,26.00
2017-08-07T00:44:48.637Z,26.20
2017-08-07T00:47:16.123Z,26.60
2017-08-07T00:49:43.602Z,27.00
2017-08-07T00:52:11.085Z,26.90
2017-08-07T00:54:38.579Z,26.30
2017-08-07T00:57:06.064Z,25.60
2017-08-07T00:59:33.567Z,25.80
2017-08-07T01:02:01.773Z,25.80
2017-08-07T01:04:29.258Z,26.30
2017-08-07T01:06:56.759Z,26.20
2017-08-07T01:09:24.246Z,26.20
2017-08-07T01:11:51.734Z,26.60
2017-08-07T01:14:19.213Z,26.60
2017-08-07T01:16:46.722Z,26.50
2017-08-07T01:19:15.074Z,26.80
2017-08-07T01:21:42.558Z,26.90
2017-08-07T01:24:10.063Z,26.20
2017-08-07T01:26:37.552Z,26.70
2017-08-07T01:29:05.038Z,26.80
2017-08-07T01:31:32.543Z,26.70
2017-08-07T01:34:00.023Z,27.00
2017-08-07T01:36:27.524Z,26.60
2017-08-07T01:38:55.026Z,26.50
2017-08-07T01:41:22.518Z,26.30
2017-08-07T01:43:50.760Z,26.80
2017-08-07T01:46:18.262Z,26.70
2017-08-07T01:48:45.965Z,26.90
2017-08-07T01:51:13.450Z,27.00
2017-08-07T01:53:40.946Z,26.60
2017-08-07T01:56:08.441Z,26.90
2017-08-07T01:58:35.943Z,26.80
2017-08-07T02:01:03.564Z,26.00
2017-08-07T02:03:31.051Z,26.50
2017-08-07T02:05:58.543Z,26.50
2017-08-07T02:08:26.244Z,26.60
2017-08-07T02:10:53.918Z,26.80
2017-08-07T02:13:21.572Z,26.70
2017-08-07T02:15:49.200Z,26.60
2017-08-07T02:18:16.701Z,26.70
2017-08-07T02:20:44.242Z,26.80
2017-08-07T02:23:11.914Z,26.90
2017-08-07T02:25:39.615Z,26.60
2017-08-07T02:28:07.224Z,26.70
2017-08-07T02:30:35.058Z,26.80
2017-08-07T02:33:03.064Z,26.80
2017-08-07T02:35:30.845Z,26.80
2017-08-07T02:37:58.364Z,26.80
2017-08-07T02:40:25.853Z,26.90
2017-08-07T02:42:53.341Z,26.90
2017-08-07T02:45:20.832Z,26.60
2017-08-07T02:47:48.322Z,26.00
2017-08-07T02:50:15.817Z,25.40
2017-08-07T02:52:43.321Z,25.00
2017-08-07T02:55:10.816Z,25.00
2017-08-07T02:57:38.297Z,25.00
2017-08-07T03:00:05.802Z,24.90
2017-08-07T03:02:33.286Z,25.40
2017-08-07T03:05:00.787Z,25.10
2017-08-07T03:07:29.071Z,25.40
2017-08-07T03:09:57.340Z,26.10
2017-08-07T03:12:24.824Z,26.00
2017-08-07T03:14:53.091Z,25.10
2017-08-07T03:17:20.569Z,25.00
2017-08-07T03:19:48.058Z,24.70
2017-08-07T03:22:15.550Z,24.40
2017-08-07T03:24:43.038Z,24.30
2017-08-07T03:27:10.523Z,24.40
2017-08-07T03:29:38.030Z,24.90
2017-08-07T03:32:05.515Z,24.90
2017-08-07T03:34:32.998Z,25.60
2017-08-07T03:37:00.504Z,26.20
2017-08-07T03:39:28.005Z,26.20
2017-08-07T03:41:55.504Z,26.20
2017-08-07T03:44:23.011Z,26.30
2017-08-07T03:46:50.511Z,26.30
2017-08-07T03:49:17.990Z,26.00
2017-08-07T03:51:45.482Z,25.30
2017-08-07T03:54:12.972Z,25.70
2017-08-07T03:56:40.454Z,25.70
2017-08-07T03:59:07.950Z,26.10
2017-08-07T04:01:35.433Z,26.30
2017-08-07T04:04:02.919Z,26.40
2017-08-07T04:06:30.408Z,25.60
2017-08-07T04:08:57.894Z,25.20
2017-08-07T04:11:25.384Z,25.60
2017-08-07T04:13:52.879Z,25.60
2017-08-07T04:16:20.376Z,25.80
2017-08-07T04:18:47.871Z,26.10
2017-08-07T04:21:15.364Z,26.30
2017-08-07T04:23:42.841Z,26.30
2017-08-07T04:26:10.324Z,25.80
2017-08-07T04:28:37.821Z,26.00
2017-08-07T04:31:05.302Z,26.20
2017-08-07T04:33:32.786Z,25.50
2017-08-07T04:36:01.051Z,25.10
2017-08-07T04:38:29.299Z,25.30
2017-08-07T04:40:56.778Z,25.30
2017-08-07T04:43:24.275Z,25.90
2017-08-07T04:45:51.759Z,25.70
2017-08-07T04:48:19.249Z,25.30
2017-08-07T04:50:46.754Z,25.70
2017-08-07T04:53:14.229Z,25.30
2017-08-07T04:55:41.722Z,25.40
2017-08-07T04:58:09.218Z,24.60
2017-08-07T05:00:36.689Z,24.30
2017-08-07T05:03:04.913Z,23.80
2017-08-07T05:05:32.695Z,24.20
2017-08-07T05:08:00.938Z,24.70
2017-08-07T05:10:28.424Z,24.70
2017-08-07T05:12:55.937Z,25.30
2017-08-07T05:15:24.484Z,24.60
2017-08-07T05:17:52.739Z,24.80
2017-08-07T05:20:20.236Z,24.70
2017-08-07T05:22:47.723Z,24.10
2017-08-07T05:25:15.202Z,24.40
2017-08-07T05:27:42.695Z,24.40
2017-08-07T05:30:10.942Z,24.30
2017-08-07T05:32:38.422Z,24.30
2017-08-07T05:35:06.687Z,25.50
2017-08-07T05:37:34.171Z,25.40
2017-08-07T05:40:01.659Z,25.20
2017-08-07T05:42:29.155Z,25.10
2017-08-07T05:44:56.638Z,25.00
2017-08-07T05:47:24.882Z,24.50
2017-08-07T05:49:52.371Z,24.50
2017-08-07T05:52:20.622Z,24.70
2017-08-07T05:54:48.089Z,24.70
2017-08-07T05:57:15.591Z,25.30
2017-08-07T05:59:43.073Z,25.10
2017-08-07T06:02:10.560Z,24.30
2017-08-07T06:04:38.113Z,24.30
2017-08-07T06:07:05.598Z,24.30
2017-08-07T06:09:33.080Z,24.40
2017-08-07T06:12:00.570Z,25.10
2017-08-07T06:14:28.589Z,24.60
2017-08-07T06:16:57.754Z,24.50
2017-08-07T06:19:25.834Z,24.40
2017-08-07T06:21:56.930Z,24.40
2017-08-07T06:24:24.580Z,24.40
2017-08-07T06:26:53.098Z,25.00
2017-08-07T06:29:20.757Z,25.00
2017-08-07T06:31:48.834Z,25.10
2017-08-07T06:34:16.347Z,24.50
2017-08-07T06:36:44.605Z,24.90
2017-08-07T06:39:12.099Z,24.80
2017-08-07T06:41:39.602Z,24.80
2017-08-07T06:44:07.102Z,25.00
2017-08-07T06:46:35.349Z,25.50
2017-08-07T06:49:02.851Z,25.40
2017-08-07T06:51:30.351Z,25.20
2017-08-07T06:53:57.835Z,25.50
2017-08-07T06:56:25.363Z,25.20
2017-08-07T06:58:52.845Z,25.80
2017-08-07T07:01:20.322Z,26.10
2017-08-07T07:03:47.833Z,26.20
2017-08-07T07:06:15.537Z,26.20
2017-08-07T07:08:43.104Z,26.00
2017-08-07T07:11:11.280Z,26.30
2017-08-07T07:13:39.003Z,26.10
2017-08-07T07:16:07.270Z,25.70
2017-08-07T07:18:35.170Z,25.40
2017-08-07T07:21:02.934Z,25.30
2017-08-07T07:23:30.952Z,25.50
2017-08-07T07:25:59.081Z,25.70
2017-08-07T07:28:26.655Z,25.60
2017-08-07T07:30:54.696Z,25.00
2017-08-07T07:33:22.470Z,25.70
2017-08-07T07:35:49.942Z,26.00
2017-08-07T07:38:17.785Z,26.20
2017-08-07T07:40:45.552Z,26.00
2017-08-07T07:43:13.358Z,26.10
2017-08-07T07:45:41.054Z,26.20
2017-08-07T07:48:09.021Z,26.30
2017-08-07T07:50:37.575Z,26.10
2017-08-07T07:53:05.331Z,26.20
2017-08-07T07:55:33.399Z,26.40
2017-08-07T07:58:01.203Z,25.90
2017-08-07T08:00:28.933Z,25.70
2017-08-07T08:02:56.859Z,25.70
2017-08-07T08:05:24.888Z,26.10
2017-08-07T08:07:52.589Z,26.30
2017-08-07T08:10:20.583Z,26.50
2017-08-07T08:12:48.652Z,26.30
2017-08-07T08:15:17.063Z,26.50
2017-08-07T08:17:45.308Z,26.60
2017-08-07T08:20:13.069Z,26.60
2017-08-07T08:22:40.666Z,26.40
2017-08-07T08:25:08.318Z,26.50
2017-08-07T08:27:35.841Z,26.50
2017-08-07T08:30:03.624Z,26.30
2017-08-07T08:32:31.392Z,26.30
2017-08-07T08:34:59.272Z,26.30
2017-08-07T08:37:27.262Z,26.10
2017-08-07T08:39:55.280Z,26.20
2017-08-07T08:42:22.960Z,25.90
2017-08-07T08:44:50.799Z,26.00
2017-08-07T08:47:18.468Z,26.00
2017-08-07T08:49:46.394Z,26.40
2017-08-07T08:52:14.570Z,26.10
2017-08-07T08:54:42.608Z,25.90
2017-08-07T08:57:10.253Z,26.00
2017-08-07T08:59:38.128Z,26.20
2017-08-07T09:02:05.704Z,26.30
2017-08-07T09:04:42.889Z,26.20
2017-08-07T09:07:20.773Z,26.20
2017-08-07T09:10:04.703Z,26.40
2017-08-07T09:12:46.056Z,26.00
2017-08-07T09:15:23.423Z,26.10
2017-08-07T09:17:56.677Z,26.30
2017-08-07T09:20:24.867Z,26.30
2017-08-07T09:22:53.361Z,26.30
2017-08-07T09:25:21.545Z,26.60
2017-08-07T09:27:50.083Z,26.50
2017-08-07T09:30:18.315Z,26.20
2017-08-07T09:32:46.559Z,26.30
2017-08-07T09:35:18.303Z,26.60
2017-08-07T09:37:46.783Z,26.70
2017-08-07T09:40:15.401Z,26.60
2017-08-07T09:42:43.177Z,26.50
2017-08-07T09:45:14.218Z,26.50
2017-08-07T09:47:42.814Z,26.40
2017-08-07T09:50:11.236Z,26.70
2017-08-07T09:52:39.255Z,27.00
2017-08-07T09:55:09.376Z,27.50
2017-08-07T09:57:39.295Z,28.20
2017-08-07T10:00:07.254Z,28.30
2017-08-07T10:02:35.533Z,28.30
2017-08-07T10:05:04.311Z,29.30
2017-08-07T10:07:33.813Z,30.50
2017-08-07T10:10:01.820Z,30.40
2017-08-07T10:12:32.076Z,30.50
2017-08-07T10:15:00.645Z,30.50
2017-08-07T10:17:28.528Z,30.10
2017-08-07T10:19:58.074Z,29.70
2017-08-07T10:22:26.066Z,29.30
2017-08-07T10:24:54.339Z,29.20
2017-08-07T10:27:22.079Z,29.10
2017-08-07T10:29:50.079Z,29.20
2017-08-07T10:32:17.956Z,29.00
2017-08-07T10:34:47.135Z,29.10
2017-08-07T10:37:16.328Z,29.30
2017-08-07T10:39:44.750Z,29.30
2017-08-07T10:42:14.685Z,29.10
2017-08-07T10:44:43.081Z,29.40
2017-08-07T10:47:13.130Z,29.30
2017-08-07T10:49:41.266Z,29.40
2017-08-07T10:52:09.897Z,29.20
2017-08-07T10:54:39.813Z,29.10
2017-08-07T10:57:08.636Z,29.00
2017-08-07T10:59:37.527Z,28.90
2017-08-07T11:02:05.363Z,28.70
2017-08-07T11:04:33.297Z,28.90
2017-08-07T11:07:02.034Z,29.20
2017-08-07T11:09:32.564Z,29.40
2017-08-07T11:12:01.536Z,29.40
2017-08-07T11:14:30.949Z,29.20
2017-08-07T11:16:59.036Z,29.00
2017-08-07T11:19:29.833Z,29.10
2017-08-07T11:21:58.333Z,29.00
2017-08-07T11:24:29.979Z,29.10
2017-08-07T11:26:57.977Z,29.20
2017-08-07T11:29:28.321Z,29.30
2017-08-07T11:31:56.043Z,29.20
2017-08-07T11:34:24.585Z,29.30
2017-08-07T11:36:54.522Z,29.60
2017-08-07T11:39:23.275Z,29.50
2017-08-07T11:41:52.280Z,29.40
2017-08-07T11:44:21.741Z,29.20
2017-08-07T11:46:49.627Z,29.20
2017-08-07T11:49:19.053Z,29.00
2017-08-07T11:51:48.343Z,29.00
2017-08-07T11:54:16.067Z,29.00
2017-08-07T11:56:44.664Z,29.10
2017-08-07T11:59:12.664Z,29.10
2017-08-07T12:01:41.513Z,29.10
2017-08-07T12:04:10.133Z,29.30
2017-08-07T12:06:38.301Z,29.30
2017-08-07T12:09:06.363Z,29.40
2017-08-07T12:11:35.967Z,29.30
2017-08-07T12:14:07.342Z,29.30
2017-08-07T12:16:35.388Z,29.20
2017-08-07T12:19:06.656Z,29.30
2017-08-07T12:21:35.012Z,29.30
2017-08-07T12:24:05.169Z,29.30
2017-08-07T12:26:36.764Z,29.30
2017-08-07T12:29:08.432Z,29.30
2017-08-07T12:31:35.993Z,29.30
2017-08-07T12:34:03.899Z,29.40
2017-08-07T12:36:31.653Z,29.50
2017-08-07T12:39:00.049Z,29.50
2017-08-07T12:41:29.435Z,29.40
2017-08-07T12:43:57.281Z,29.20
2017-08-07T12:46:25.223Z,29.10
2017-08-07T12:48:53.223Z,29.00
2017-08-07T12:51:23.077Z,29.00
2017-08-07T12:53:51.428Z,29.30
2017-08-07T12:56:19.598Z,29.30
2017-08-07T12:58:47.772Z,29.20
2017-08-07T13:01:16.584Z,29.30
2017-08-07T13:03:45.231Z,29.30
2017-08-07T13:06:13.920Z,29.40
2017-08-07T13:08:41.967Z,29.50
2017-08-07T13:11:13.314Z,29.40
2017-08-07T13:13:42.352Z,29.50
2017-08-07T13:16:10.686Z,29.40
2017-08-07T13:18:40.627Z,29.50
2017-08-07T13:21:09.486Z,29.40
2017-08-07T13:23:37.415Z,29.50
2017-08-07T13:26:05.512Z,29.50
2017-08-07T13:28:33.751Z,29.40
2017-08-07T13:31:01.312Z,29.40
2017-08-07T13:33:29.367Z,29.40
2017-08-07T13:35:57.371Z,29.40
2017-08-07T13:38:25.284Z,29.50
2017-08-07T13:40:54.341Z,29.60
2017-08-07T13:43:22.289Z,29.60
2017-08-07T13:45:51.191Z,29.50
2017-08-07T13:48:19.638Z,29.40
2017-08-07T13:50:47.864Z,29.60
2017-08-07T13:53:16.274Z,29.70
2017-08-07T13:55:47.198Z,29.70
2017-08-07T13:58:15.853Z,29.70
2017-08-07T14:00:43.736Z,29.70
2017-08-07T14:03:11.814Z,29.70
2017-08-07T14:05:40.641Z,29.80
2017-08-07T14:08:09.367Z,29.90
2017-08-07T14:10:37.301Z,29.90
2017-08-07T14:13:05.854Z,29.70
2017-08-07T14:15:34.771Z,29.70
2017-08-07T14:18:04.355Z,29.80
2017-08-07T14:20:32.527Z,29.70
2017-08-07T14:23:00.742Z,29.90
2017-08-07T14:25:29.082Z,29.70
2017-08-07T14:27:58.514Z,29.70
2017-08-07T14:30:28.263Z,29.90
2017-08-07T14:32:56.236Z,29.90
2017-08-07T14:35:24.593Z,29.80
2017-08-07T14:37:52.760Z,29.80
2017-08-07T14:40:21.887Z,29.80
2017-08-07T14:42:50.103Z,29.80
2017-08-07T14:45:18.167Z,29.70
2017-08-07T14:47:47.107Z,29.70
2017-08-07T14:50:17.749Z,29.70
2017-08-07T14:52:46.212Z,29.80
2017-08-07T14:55:14.820Z,30.00
2017-08-07T14:57:44.197Z,30.00
2017-08-07T15:00:12.811Z,30.00
2017-08-07T15:02:40.991Z,29.90
2017-08-07T15:05:08.946Z,30.00
2017-08-07T15:07:37.960Z,30.10
2017-08-07T15:10:06.791Z,30.10
2017-08-07T15:12:35.432Z,30.00
2017-08-07T15:15:04.434Z,30.00
2017-08-07T15:17:32.714Z,30.00
2017-08-07T15:20:01.320Z,29.80
2017-08-07T15:22:31.252Z,29.90
2017-08-07T15:24:59.419Z,30.00
2017-08-07T15:27:27.708Z,29.90
2017-08-07T15:29:55.730Z,29.80
2017-08-07T15:32:24.008Z,29.90
2017-08-07T15:34:51.719Z,29.90
2017-08-07T15:37:19.709Z,30.10
2017-08-07T15:39:48.413Z,30.00
2017-08-07T15:42:16.281Z,29.90
2017-08-07T15:44:44.369Z,29.90
2017-08-07T15:47:12.692Z,29.80
2017-08-07T15:49:41.158Z,30.00
2017-08-07T15:52:10.186Z,29.90
2017-08-07T15:54:39.012Z,30.00
2017-08-07T15:57:07.657Z,29.90
2017-08-07T15:59:35.660Z,29.90
2017-08-07T16:02:03.535Z,30.00
2017-08-07T16:04:34.232Z,30.00
2017-08-07T16:07:03.110Z,30.00
2017-08-07T16:09:30.763Z,30.00
2017-08-07T16:11:59.525Z,30.00
2017-08-07T16:14:27.605Z,29.90
2017-08-07T16:16:56.202Z,29.80
2017-08-07T16:19:25.614Z,29.80
2017-08-07T16:21:54.152Z,29.60
2017-08-07T16:24:22.111Z,29.70
2017-08-07T16:26:50.293Z,29.60
2017-08-07T16:29:18.695Z,29.50
2017-08-07T16:31:47.790Z,29.60
2017-08-07T16:34:15.861Z,29.60
2017-08-07T16:36:43.681Z,29.70
2017-08-07T16:39:12.719Z,29.70
2017-08-07T16:41:40.732Z,29.60
2017-08-07T16:44:09.760Z,29.80
2017-08-07T16:46:37.967Z,29.70
2017-08-07T16:49:06.615Z,29.70
2017-08-07T16:51:35.484Z,29.60
2017-08-07T16:54:04.024Z,29.60
2017-08-07T16:56:32.913Z,29.70
2017-08-07T16:59:01.060Z,29.70
2017-08-07T17:01:29.894Z,29.50
2017-08-07T17:03:58.869Z,29.50
2017-08-07T17:06:27.818Z,29.50
2017-08-07T17:08:55.891Z,29.40
2017-08-07T17:11:23.811Z,29.40
2017-08-07T17:13:53.019Z,29.40
2017-08-07T17:16:20.962Z,29.40
2017-08-07T17:18:48.952Z,29.40
2017-08-07T17:21:18.457Z,29.40
2017-08-07T17:23:47.253Z,29.40
2017-08-07T17:26:15.293Z,29.30
2017-08-07T17:28:43.302Z,29.20
2017-08-07T17:31:13.229Z,29.20
2017-08-07T17:33:42.197Z,29.10
2017-08-07T17:36:10.758Z,29.00
2017-08-07T17:38:39.101Z,29.00
2017-08-07T17:41:07.094Z,29.00
2017-08-07T17:43:35.982Z,28.90
2017-08-07T17:46:04.567Z,28.90
2017-08-07T17:48:34.009Z,28.90
2017-08-07T17:51:03.539Z,28.80
2017-08-07T17:53:31.461Z,28.90
2017-08-07T17:56:00.401Z,28.90
2017-08-07T17:58:28.446Z,28.80
2017-08-07T18:00:57.386Z,28.80
2017-08-07T18:03:25.473Z,28.80
2017-08-07T18:05:54.680Z,28.80
2017-08-07T18:08:23.472Z,28.70
2017-08-07T18:10:52.822Z,28.60
2017-08-07T18:13:20.964Z,28.60
2017-08-07T18:15:49.423Z,28.70
2017-08-07T18:18:18.437Z,28.70
2017-08-07T18:20:46.730Z,28.60
2017-08-07T18:23:14.844Z,28.60
2017-08-07T18:25:42.883Z,28.60
2017-08-07T18:28:11.408Z,28.60
2017-08-07T18:30:39.908Z,28.50
2017-08-07T18:33:09.155Z,28.50
2017-08-07T18:35:37.306Z,28.50
2017-08-07T18:38:05.297Z,28.50
2017-08-07T18:40:33.240Z,28.50
2017-08-07T18:43:02.028Z,28.50
2017-08-07T18:45:30.162Z,28.50
2017-08-07T18:47:58.917Z,28.50
2017-08-07T18:50:26.905Z,28.40
2017-08-07T18:52:55.004Z,28.50
2017-08-07T18:55:23.295Z,28.50
2017-08-07T18:57:52.826Z,28.50
2017-08-07T19:00:21.495Z,28.40
2017-08-07T19:02:50.787Z,28.50
2017-08-07T19:05:19.682Z,28.40
2017-08-07T19:07:48.742Z,28.40
2017-08-07T19:10:18.234Z,28.40
2017-08-07T19:12:46.197Z,28.30
2017-08-07T19:15:14.567Z,28.40
2017-08-07T19:17:42.679Z,28.40
2017-08-07T19:20:10.858Z,28.40
2017-08-07T19:22:39.888Z,28.30
2017-08-07T19:25:09.913Z,28.30
2017-08-07T19:27:39.773Z,28.30
2017-08-07T19:30:08.338Z,28.30
2017-08-07T19:32:36.291Z,28.30
2017-08-07T19:35:04.796Z,28.30
2017-08-07T19:37:33.212Z,28.30
2017-08-07T19:40:02.280Z,28.30
2017-08-07T19:42:31.246Z,28.30
2017-08-07T19:47:33.458Z,28.30
2017-08-07T19:50:02.363Z,28.30
2017-08-07T19:52:30.175Z,28.30
2017-08-07T19:54:59.851Z,28.30
2017-08-07T19:57:28.005Z,28.30
2017-08-07T19:59:57.674Z,28.30
2017-08-07T20:02:27.616Z,28.10
2017-08-07T20:04:56.207Z,28.10
2017-08-07T20:07:24.683Z,28.20
2017-08-07T20:09:52.478Z,28.10
2017-08-07T20:12:20.452Z,28.10
2017-08-07T20:14:49.366Z,28.10
2017-08-07T20:17:17.510Z,28.20
2017-08-07T20:19:45.870Z,28.20
2017-08-07T20:22:13.909Z,28.10
2017-08-07T20:24:42.830Z,28.10
2017-08-07T20:27:10.926Z,28.00
2017-08-07T20:29:39.163Z,28.20
2017-08-07T20:32:07.447Z,28.10
2017-08-07T20:34:35.729Z,28.10
2017-08-07T20:37:03.771Z,28.10
2017-08-07T20:39:32.618Z,28.20
2017-08-07T20:42:00.521Z,28.10
2017-08-07T20:44:28.209Z,28.10
2017-08-07T20:46:57.597Z,27.90
2017-08-07T20:49:28.753Z,27.90
2017-08-07T20:51:56.811Z,28.00
2017-08-07T20:54:24.894Z,28.10
2017-08-07T20:56:53.950Z,28.00
2017-08-07T20:59:24.588Z,28.00
2017-08-07T21:01:52.725Z,28.00
2017-08-07T21:04:21.843Z,28.00
2017-08-07T21:06:49.903Z,28.00
2017-08-07T21:09:18.042Z,27.90
2017-08-07T21:11:47.335Z,28.00
2017-08-07T21:14:16.359Z,28.10
2017-08-07T21:16:44.450Z,28.00
2017-08-07T21:19:12.413Z,28.10
2017-08-07T21:21:40.481Z,28.00
2017-08-07T21:24:08.849Z,28.10
2017-08-07T21:26:36.633Z,28.00
2017-08-07T21:29:05.851Z,27.90
2017-08-07T21:31:34.102Z,28.00
2017-08-07T21:34:02.073Z,28.10
2017-08-07T21:36:31.008Z,28.10
2017-08-07T21:38:59.037Z,28.00
2017-08-07T21:41:27.563Z,28.00
2017-08-07T21:43:55.518Z,28.10
2017-08-07T21:46:23.552Z,28.00
2017-08-07T21:48:51.985Z,27.90
2017-08-07T21:51:19.824Z,27.90
2017-08-07T21:53:47.847Z,27.90
2017-08-07T21:56:16.638Z,27.80
2017-08-07T21:58:45.511Z,27.80
2017-08-07T22:01:13.827Z,27.80
2017-08-07T22:03:42.017Z,27.90
2017-08-07T22:06:10.088Z,27.90
2017-08-07T22:08:38.230Z,27.90
2017-08-07T22:11:07.343Z,28.00
2017-08-07T22:13:34.824Z,27.90
2017-08-07T22:16:03.182Z,27.80
2017-08-07T22:18:31.474Z,27.90
2017-08-07T22:20:59.442Z,27.60
2017-08-07T22:23:27.936Z,27.80
2017-08-07T22:25:56.676Z,27.80
2017-08-07T22:28:24.543Z,27.60
2017-08-07T22:30:57.056Z,27.80
2017-08-07T22:33:25.398Z,27.80
2017-08-07T22:35:54.485Z,27.70
2017-08-07T22:38:21.994Z,27.80
2017-08-07T22:40:50.170Z,27.70
2017-08-07T22:43:17.797Z,27.60
2017-08-07T22:45:46.103Z,27.50
2017-08-07T22:48:13.742Z,27.50
2017-08-07T22:50:43.904Z,27.40
2017-08-07T22:53:12.186Z,27.30
2017-08-07T22:55:40.142Z,27.40
2017-08-07T22:58:08.127Z,27.40
2017-08-07T23:00:36.463Z,27.40
2017-08-07T23:03:04.760Z,27.40
2017-08-07T23:05:33.182Z,27.30
2017-08-07T23:08:02.359Z,27.50
2017-08-07T23:10:32.696Z,27.40
2017-08-07T23:13:01.256Z,27.30
2017-08-07T23:15:29.651Z,27.40
2017-08-07T23:17:59.253Z,27.40
2017-08-07T23:20:28.580Z,27.30
2017-08-07T23:22:56.781Z,27.30
2017-08-07T23:25:25.270Z,27.20
2017-08-07T23:27:56.438Z,27.10
2017-08-07T23:30:24.875Z,27.20
2017-08-07T23:32:52.881Z,27.20
2017-08-07T23:35:21.717Z,27.20
2017-08-07T23:37:49.224Z,27.20
2017-08-07T23:40:18.146Z,27.30
2017-08-07T23:42:47.498Z,27.20
2017-08-07T23:45:16.575Z,27.20
2017-08-07T23:47:45.028Z,27.20
2017-08-07T23:50:13.829Z,27.20
2017-08-07T23:52:41.922Z,27.20
2017-08-07T23:55:10.401Z,27.10
2017-08-07T23:57:38.299Z,27.00
